Pagrindinis puslapis
METAR-TAF:

METAR-TAF

Oro uostai :

Almagro, Ispanija

platuma: 38-57-11N, ilguma: 3-44-29W, Aukštis: 629 m

Dabartinis oras

Ataskaita buvo paskelbta 23 minutes, ne 13:00 UTC
Vėjas 11 kt iš Vakarų, svyruoja nuo Pietvakarių ir Šiaurės Vakarų
Temperatūra 20°C
Drėgmė 43%
Slėgis 1008 hPa
Matomumas 10 km arba daugiau
Išsisklaidę debesys ne aukštis 4200 ft

METAR: LEAO 251300Z 26011KT 230V310 9999 SCT042 20/07 Q1008

Laikas: 15:23 (13:23 UTC)

Prognozė

Ataskaita buvo paskelbta 5 valandos ir 23 minutes, ne 08:00 UTC
Prognozė galioja nuo 25 metu 09 UTC su 26 metu 09 UTC
Vėjas 3 kt nuo kintamojo kryptimis
Matomumas 10 km arba daugiau
nėra debesų žemiau 1500 m ir nėra kamuolinių lietaus debesų
Tapsmas
nuo 25 metu 09 UTC su 25 metu 11 UTC
Vėjas 10 kt iš Vakarų
Tikimybė 30% :
Laikinai
nuo 25 metu 14 UTC su 25 metu 17 UTC
Vėjas 15 kt iš Vakarų su gūsio iki 25 kt

TAF: LEAO 250800Z 2509/2609 VRB03KT CAVOK TX21/2515Z TN03/2606Z BECMG 2509/2511 27010KT PROB30 TEMPO 2514/2517 27015G25KT

Orai ataskaitas ir orų prognozės (METAR, TAF).

turimą stotys yra geltonos ir raudonos taškus žemėlapyje.

Perkelti pele per norėdami pamatyti stoties vardą.

Tada spustelėkite, norėdami matyti oro stebėjimo ir prognozės.

Norėdami pakeisti žemėlapį: spustelėkite ant žalios mygtukų su juodo kryžiaus žemyn,; žalią mygtuką su brūkšneliu, jei norite nutolinti; arba žalių rodyklių gretimoms žemėlapius.


METAR-TAF: